sensor_id;sensor_type;location;lat;lon;timestamp;pressure;altitude;pressure_sealevel;temperature;humidity
13456;BME280;6800;50.940;6.940;2023-02-13T00:03:21;102928.75;;;19.65;39.68
13456;BME280;6800;50.940;6.940;2023-02-13T00:07:23;102933.22;;;19.79;39.17
13456;BME280;6800;50.940;6.940;2023-02-13T00:11:24;102929.13;;;19.73;39.53
13456;BME280;6800;50.940;6.940;2023-02-13T00:15:25;102923.56;;;19.32;40.37
13456;BME280;6800;50.940;6.940;2023-02-13T00:19:27;102931.50;;;19.64;39.85
13456;BME280;6800;50.940;6.940;2023-02-13T00:23:29;102928.53;;;19.68;39.65
13456;BME280;6800;50.940;6.940;2023-02-13T00:27:31;102919.41;;;19.74;39.57
13456;BME280;6800;50.940;6.940;2023-02-13T00:31:33;102914.50;;;19.82;39.44
13456;BME280;6800;50.940;6.940;2023-02-13T00:35:35;102915.59;;;19.64;39.60
13456;BME280;6800;50.940;6.940;2023-02-13T00:39:36;102923.41;;;18.57;41.64
13456;BME280;6800;50.940;6.940;2023-02-13T00:43:37;102903.22;;;19.33;40.45
13456;BME280;6800;50.940;6.940;2023-02-13T00:47:39;102910.59;;;19.87;39.54
13456;BME280;6800;50.940;6.940;2023-02-13T00:51:40;102900.34;;;19.22;40.40
13456;BME280;6800;50.940;6.940;2023-02-13T00:55:41;102899.59;;;18.89;41.15
13456;BME280;6800;50.940;6.940;2023-02-13T00:59:43;102888.16;;;19.49;39.79
13456;BME280;6800;50.940;6.940;2023-02-13T01:03:44;102889.00;;;19.65;39.75
13456;BME280;6800;50.940;6.940;2023-02-13T01:07:46;102889.72;;;19.53;40.05
13456;BME280;6800;50.940;6.940;2023-02-13T01:11:47;102888.19;;;19.33;40.00
13456;BME280;6800;50.940;6.940;2023-02-13T01:15:49;102893.59;;;19.62;39.84
13456;BME280;6800;50.940;6.940;2023-02-13T01:19:51;102887.19;;;19.20;39.84
13456;BME280;6800;50.940;6.940;2023-02-13T01:23:52;102887.59;;;19.74;39.33
13456;BME280;6800;50.940;6.940;2023-02-13T01:27:54;102887.88;;;19.83;39.13
13456;BME280;6800;50.940;6.940;2023-02-13T01:31:55;102895.09;;;18.91;40.26
13456;BME280;6800;50.940;6.940;2023-02-13T01:35:56;102887.03;;;18.92;40.72
13456;BME280;6800;50.940;6.940;2023-02-13T01:39:58;102890.91;;;19.77;38.87
13456;BME280;6800;50.940;6.940;2023-02-13T01:44:00;102883.88;;;19.62;39.29
13456;BME280;6800;50.940;6.940;2023-02-13T01:48:10;102879.81;;;19.41;39.60
13456;BME280;6800;50.940;6.940;2023-02-13T01:52:15;102883.78;;;19.03;40.21
13456;BME280;6800;50.940;6.940;2023-02-13T01:56:24;102879.94;;;19.83;39.13
13456;BME280;6800;50.940;6.940;2023-02-13T02:00:26;102882.59;;;19.54;39.52
13456;BME280;6800;50.940;6.940;2023-02-13T02:04:32;102889.84;;;19.05;40.45
13456;BME280;6800;50.940;6.940;2023-02-13T02:08:36;102888.03;;;19.36;39.88
13456;BME280;6800;50.940;6.940;2023-02-13T02:12:45;102880.81;;;18.78;40.76
13456;BME280;6800;50.940;6.940;2023-02-13T02:16:47;102896.78;;;19.07;40.62
13456;BME280;6800;50.940;6.940;2023-02-13T02:21:14;102886.44;;;19.18;40.48
13456;BME280;6800;50.940;6.940;2023-02-13T02:25:39;102888.94;;;19.06;40.49
13456;BME280;6800;50.940;6.940;2023-02-13T02:34:49;102890.13;;;18.85;41.05
13456;BME280;6800;50.940;6.940;2023-02-13T02:47:19;102879.28;;;18.89;40.84
13456;BME280;6800;50.940;6.940;2023-02-13T02:56:01;102881.59;;;18.95;40.78
13456;BME280;6800;50.940;6.940;2023-02-13T03:00:05;102885.97;;;19.41;40.04
13456;BME280;6800;50.940;6.940;2023-02-13T03:04:39;102897.13;;;19.01;41.06
13456;BME280;6800;50.940;6.940;2023-02-13T03:09:03;102893.56;;;18.87;41.28
13456;BME280;6800;50.940;6.940;2023-02-13T03:13:43;102894.97;;;18.45;41.30
13456;BME280;6800;50.940;6.940;2023-02-13T03:17:47;102890.19;;;18.99;40.52
13456;BME280;6800;50.940;6.940;2023-02-13T03:22:15;102889.19;;;19.01;40.59
13456;BME280;6800;50.940;6.940;2023-02-13T03:30:55;102886.72;;;19.59;39.37
13456;BME280;6800;50.940;6.940;2023-02-13T03:43:46;102888.75;;;18.78;41.05
13456;BME280;6800;50.940;6.940;2023-02-13T03:47:54;102888.88;;;19.21;40.04
13456;BME280;6800;50.940;6.940;2023-02-13T03:52:08;102884.00;;;19.45;39.75
13456;BME280;6800;50.940;6.940;2023-02-13T03:56:12;102885.38;;;19.36;39.77
13456;BME280;6800;50.940;6.940;2023-02-13T04:00:38;102885.84;;;18.66;41.26
13456;BME280;6800;50.940;6.940;2023-02-13T04:05:02;102891.66;;;18.25;42.02
13456;BME280;6800;50.940;6.940;2023-02-13T04:09:07;102882.44;;;18.80;41.12
13456;BME280;6800;50.940;6.940;2023-02-13T04:13:15;102889.75;;;18.44;41.60
13456;BME280;6800;50.940;6.940;2023-02-13T04:17:29;102894.25;;;18.75;40.85
13456;BME280;6800;50.940;6.940;2023-02-13T04:21:34;102894.63;;;19.14;40.18
13456;BME280;6800;50.940;6.940;2023-02-13T04:25:38;102895.72;;;18.47;41.17
13456;BME280;6800;50.940;6.940;2023-02-13T04:29:40;102899.69;;;19.03;40.59
13456;BME280;6800;50.940;6.940;2023-02-13T04:33:42;102904.63;;;18.78;40.72
13456;BME280;6800;50.940;6.940;2023-02-13T04:37:43;102895.00;;;18.77;40.89
13456;BME280;6800;50.940;6.940;2023-02-13T04:41:44;102903.69;;;18.94;40.66
13456;BME280;6800;50.940;6.940;2023-02-13T04:45:49;102895.41;;;19.00;40.19
13456;BME280;6800;50.940;6.940;2023-02-13T04:49:51;102891.72;;;19.03;40.14
13456;BME280;6800;50.940;6.940;2023-02-13T04:53:52;102884.84;;;18.85;40.35
13456;BME280;6800;50.940;6.940;2023-02-13T04:57:54;102885.84;;;18.66;40.42
13456;BME280;6800;50.940;6.940;2023-02-13T05:01:56;102883.44;;;18.62;40.67
13456;BME280;6800;50.940;6.940;2023-02-13T05:05:59;102883.13;;;18.35;41.10
13456;BME280;6800;50.940;6.940;2023-02-13T05:10:00;102881.38;;;18.51;40.71
13456;BME280;6800;50.940;6.940;2023-02-13T05:14:01;102891.75;;;18.23;41.35
13456;BME280;6800;50.940;6.940;2023-02-13T05:18:03;102892.50;;;18.58;40.62
13456;BME280;6800;50.940;6.940;2023-02-13T05:22:04;102890.75;;;18.41;40.63
13456;BME280;6800;50.940;6.940;2023-02-13T05:26:24;102890.19;;;18.19;40.96
13456;BME280;6800;50.940;6.940;2023-02-13T05:30:26;102899.84;;;18.03;41.60
13456;BME280;6800;50.940;6.940;2023-02-13T05:34:27;102888.16;;;18.24;41.13
13456;BME280;6800;50.940;6.940;2023-02-13T05:38:29;102899.28;;;17.81;42.51
13456;BME280;6800;50.940;6.940;2023-02-13T05:42:30;102892.59;;;18.24;41.59
13456;BME280;6800;50.940;6.940;2023-02-13T05:46:32;102897.03;;;18.23;41.30
13456;BME280;6800;50.940;6.940;2023-02-13T05:50:33;102892.00;;;18.02;42.18
13456;BME280;6800;50.940;6.940;2023-02-13T05:54:34;102893.22;;;17.62;42.60
13456;BME280;6800;50.940;6.940;2023-02-13T05:58:38;102905.38;;;17.99;42.17
13456;BME280;6800;50.940;6.940;2023-02-13T06:02:39;102897.72;;;17.94;42.00
13456;BME280;6800;50.940;6.940;2023-02-13T06:06:41;102903.59;;;17.99;42.12
13456;BME280;6800;50.940;6.940;2023-02-13T06:10:42;102904.69;;;17.95;42.18
13456;BME280;6800;50.940;6.940;2023-02-13T06:14:45;102901.50;;;17.88;42.36
13456;BME280;6800;50.940;6.940;2023-02-13T06:18:46;102910.19;;;17.90;41.93
13456;BME280;6800;50.940;6.940;2023-02-13T06:22:49;102907.38;;;17.42;43.04
13456;BME280;6800;50.940;6.940;2023-02-13T06:26:51;102904.31;;;17.68;42.32
13456;BME280;6800;50.940;6.940;2023-02-13T06:30:52;102898.19;;;17.85;42.12
13456;BME280;6800;50.940;6.940;2023-02-13T06:34:54;102899.59;;;17.75;42.33
13456;BME280;6800;50.940;6.940;2023-02-13T06:38:55;102902.78;;;17.64;43.35
13456;BME280;6800;50.940;6.940;2023-02-13T06:42:57;102899.84;;;18.03;42.54
13456;BME280;6800;50.940;6.940;2023-02-13T06:46:58;102896.41;;;17.85;41.93
13456;BME280;6800;50.940;6.940;2023-02-13T06:50:59;102896.09;;;17.74;41.97
13456;BME280;6800;50.940;6.940;2023-02-13T06:55:04;102901.75;;;17.31;42.65
13456;BME280;6800;50.940;6.940;2023-02-13T06:59:06;102899.41;;;17.61;42.14
13456;BME280;6800;50.940;6.940;2023-02-13T07:03:07;102898.97;;;17.70;41.65
13456;BME280;6800;50.940;6.940;2023-02-13T07:07:10;102894.34;;;17.73;41.63
13456;BME280;6800;50.940;6.940;2023-02-13T07:11:18;102887.53;;;17.52;41.91
13456;BME280;6800;50.940;6.940;2023-02-13T07:15:19;102893.50;;;17.73;41.56
13456;BME280;6800;50.940;6.940;2023-02-13T07:19:21;102897.09;;;17.72;41.60
13456;BME280;6800;50.940;6.940;2023-02-13T07:23:22;102899.13;;;17.31;43.10
13456;BME280;6800;50.940;6.940;2023-02-13T07:27:23;102903.69;;;17.80;41.48
13456;BME280;6800;50.940;6.940;2023-02-13T07:31:25;102900.09;;;17.81;41.18
13456;BME280;6800;50.940;6.940;2023-02-13T07:35:27;102904.31;;;17.68;41.52
13456;BME280;6800;50.940;6.940;2023-02-13T07:39:28;102902.72;;;17.30;41.60
13456;BME280;6800;50.940;6.940;2023-02-13T07:43:31;102910.28;;;17.89;41.14
13456;BME280;6800;50.940;6.940;2023-02-13T07:47:33;102907.78;;;17.86;40.98
13456;BME280;6800;50.940;6.940;2023-02-13T07:51:35;102913.00;;;18.05;40.95
13456;BME280;6800;50.940;6.940;2023-02-13T07:55:36;102911.75;;;17.94;40.65
13456;BME280;6800;50.940;6.940;2023-02-13T07:59:39;102911.47;;;17.66;41.55
13456;BME280;6800;50.940;6.940;2023-02-13T08:03:41;102907.19;;;17.98;40.83
13456;BME280;6800;50.940;6.940;2023-02-13T08:07:42;102907.16;;;18.15;40.57
13456;BME280;6800;50.940;6.940;2023-02-13T08:11:44;102902.31;;;18.23;40.33
13456;BME280;6800;50.940;6.940;2023-02-13T08:15:54;102914.25;;;17.63;41.17
13456;BME280;6800;50.940;6.940;2023-02-13T08:19:55;102912.31;;;18.34;39.81
13456;BME280;6800;50.940;6.940;2023-02-13T08:23:57;102914.19;;;18.64;39.64
13456;BME280;6800;50.940;6.940;2023-02-13T08:28:00;102910.53;;;19.14;39.03
13456;BME280;6800;50.940;6.940;2023-02-13T08:32:02;102923.59;;;19.01;38.85
13456;BME280;6800;50.940;6.940;2023-02-13T08:36:03;102914.38;;;19.83;37.60
13456;BME280;6800;50.940;6.940;2023-02-13T08:40:05;102912.47;;;19.71;37.07
13456;BME280;6800;50.940;6.940;2023-02-13T08:44:10;102908.72;;;20.33;36.19
13456;BME280;6800;50.940;6.940;2023-02-13T08:48:12;102913.53;;;20.55;35.11
13456;BME280;6800;50.940;6.940;2023-02-13T08:52:13;102917.91;;;20.42;35.62
13456;BME280;6800;50.940;6.940;2023-02-13T08:56:14;102911.91;;;21.60;33.03
13456;BME280;6800;50.940;6.940;2023-02-13T09:00:16;102911.66;;;21.51;33.76
13456;BME280;6800;50.940;6.940;2023-02-13T09:04:17;102908.97;;;22.40;32.50
13456;BME280;6800;50.940;6.940;2023-02-13T09:08:19;102905.91;;;22.21;32.26
13456;BME280;6800;50.940;6.940;2023-02-13T09:12:20;102916.91;;;21.52;33.07
13456;BME280;6800;50.940;6.940;2023-02-13T09:16:21;102904.19;;;22.45;31.84
13456;BME280;6800;50.940;6.940;2023-02-13T09:20:23;102910.00;;;22.76;31.50
13456;BME280;6800;50.940;6.940;2023-02-13T09:24:25;102904.44;;;22.17;31.92
13456;BME280;6800;50.940;6.940;2023-02-13T09:28:28;102898.56;;;22.12;32.27
13456;BME280;6800;50.940;6.940;2023-02-13T09:32:29;102910.88;;;22.51;30.85
13456;BME280;6800;50.940;6.940;2023-02-13T09:36:30;102898.19;;;22.67;30.76
13456;BME280;6800;50.940;6.940;2023-02-13T09:40:34;102904.44;;;22.05;31.67
13456;BME280;6800;50.940;6.940;2023-02-13T09:44:40;102898.22;;;24.08;29.47
13456;BME280;6800;50.940;6.940;2023-02-13T09:48:46;102895.03;;;25.96;26.33
13456;BME280;6800;50.940;6.940;2023-02-13T09:52:50;102901.41;;;23.78;28.56
13456;BME280;6800;50.940;6.940;2023-02-13T09:57:13;102904.16;;;24.66;27.47
13456;BME280;6800;50.940;6.940;2023-02-13T10:01:25;102894.31;;;24.89;27.29
13456;BME280;6800;50.940;6.940;2023-02-13T10:05:59;102901.84;;;25.59;26.61
13456;BME280;6800;50.940;6.940;2023-02-13T10:10:18;102904.69;;;23.36;29.66
13456;BME280;6800;50.940;6.940;2023-02-13T10:14:38;102903.94;;;24.47;27.90
13456;BME280;6800;50.940;6.940;2023-02-13T10:23:27;102891.50;;;26.95;24.58
13456;BME280;6800;50.940;6.940;2023-02-13T10:27:43;102900.03;;;27.67;23.88
13456;BME280;6800;50.940;6.940;2023-02-13T10:31:47;102898.34;;;27.38;24.71
13456;BME280;6800;50.940;6.940;2023-02-13T10:40:10;102897.50;;;27.56;24.17
13456;BME280;6800;50.940;6.940;2023-02-13T10:53:18;102891.53;;;26.16;25.51
13456;BME280;6800;50.940;6.940;2023-02-13T10:57:27;102887.44;;;26.21;25.20
13456;BME280;6800;50.940;6.940;2023-02-13T11:01:44;102870.63;;;27.08;24.47
13456;BME280;6800;50.940;6.940;2023-02-13T11:05:48;102876.41;;;28.27;22.70
13456;BME280;6800;50.940;6.940;2023-02-13T11:09:51;102855.72;;;28.82;23.07
13456;BME280;6800;50.940;6.940;2023-02-13T11:18:20;102845.34;;;29.65;21.74
13456;BME280;6800;50.940;6.940;2023-02-13T11:22:29;102841.03;;;29.72;20.78
13456;BME280;6800;50.940;6.940;2023-02-13T11:26:34;102837.91;;;30.52;21.37
13456;BME280;6800;50.940;6.940;2023-02-13T11:30:37;102835.16;;;30.36;20.35
13456;BME280;6800;50.940;6.940;2023-02-13T11:34:38;102822.16;;;29.90;20.77
13456;BME280;6800;50.940;6.940;2023-02-13T11:38:40;102830.69;;;27.90;22.47
13456;BME280;6800;50.940;6.940;2023-02-13T11:42:43;102829.56;;;27.46;23.51
13456;BME280;6800;50.940;6.940;2023-02-13T11:46:48;102819.66;;;28.03;22.59
13456;BME280;6800;50.940;6.940;2023-02-13T11:50:51;102817.91;;;28.11;22.67
13456;BME280;6800;50.940;6.940;2023-02-13T11:54:58;102805.69;;;27.24;23.57
13456;BME280;6800;50.940;6.940;2023-02-13T11:59:03;102796.81;;;26.76;24.41
13456;BME280;6800;50.940;6.940;2023-02-13T12:07:30;102792.41;;;26.65;24.78
13456;BME280;6800;50.940;6.940;2023-02-13T12:15:40;102785.81;;;25.18;26.45
13456;BME280;6800;50.940;6.940;2023-02-13T12:19:45;102787.91;;;24.29;27.73
13456;BME280;6800;50.940;6.940;2023-02-13T12:24:02;102777.91;;;24.53;27.37
13456;BME280;6800;50.940;6.940;2023-02-13T12:28:14;102773.66;;;25.35;26.38
13456;BME280;6800;50.940;6.940;2023-02-13T12:32:25;102770.72;;;24.11;28.01
13456;BME280;6800;50.940;6.940;2023-02-13T12:40:40;102777.72;;;23.11;29.90
13456;BME280;6800;50.940;6.940;2023-02-13T12:45:01;102763.91;;;24.18;28.41
13456;BME280;6800;50.940;6.940;2023-02-13T12:54:01;102759.94;;;22.88;29.87
13456;BME280;6800;50.940;6.940;2023-02-13T12:58:29;102740.88;;;24.17;28.30
13456;BME280;6800;50.940;6.940;2023-02-13T13:02:46;102748.38;;;23.57;29.08
13456;BME280;6800;50.940;6.940;2023-02-13T13:24:48;102723.16;;;23.83;27.73
13456;BME280;6800;50.940;6.940;2023-02-13T13:28:55;102724.97;;;23.38;28.35
13456;BME280;6800;50.940;6.940;2023-02-13T13:33:05;102719.78;;;23.81;27.74
13456;BME280;6800;50.940;6.940;2023-02-13T13:37:18;102718.09;;;23.12;28.95
13456;BME280;6800;50.940;6.940;2023-02-13T13:45:47;102708.97;;;23.71;28.04
13456;BME280;6800;50.940;6.940;2023-02-13T13:49:55;102708.72;;;24.08;27.21
13456;BME280;6800;50.940;6.940;2023-02-13T13:58:20;102690.88;;;23.86;27.51
13456;BME280;6800;50.940;6.940;2023-02-13T14:06:26;102692.53;;;24.31;26.90
13456;BME280;6800;50.940;6.940;2023-02-13T14:18:31;102694.66;;;24.06;27.25
13456;BME280;6800;50.940;6.940;2023-02-13T14:22:37;102680.63;;;23.48;27.26
13456;BME280;6800;50.940;6.940;2023-02-13T14:26:39;102675.22;;;24.15;26.73
13456;BME280;6800;50.940;6.940;2023-02-13T14:30:41;102676.59;;;23.87;26.60
13456;BME280;6800;50.940;6.940;2023-02-13T14:34:51;102675.28;;;23.70;27.07
13456;BME280;6800;50.940;6.940;2023-02-13T14:38:55;102679.31;;;24.30;26.63
13456;BME280;6800;50.940;6.940;2023-02-13T14:43:30;102679.16;;;24.31;26.61
13456;BME280;6800;50.940;6.940;2023-02-13T14:47:36;102671.84;;;24.44;26.42
13456;BME280;6800;50.940;6.940;2023-02-13T14:51:45;102673.53;;;24.45;26.84
13456;BME280;6800;50.940;6.940;2023-02-13T14:55:54;102675.59;;;24.42;26.22
13456;BME280;6800;50.940;6.940;2023-02-13T14:59:59;102674.53;;;24.65;26.21
13456;BME280;6800;50.940;6.940;2023-02-13T15:04:11;102669.13;;;24.55;26.13
13456;BME280;6800;50.940;6.940;2023-02-13T15:08:18;102668.25;;;24.87;25.89
13456;BME280;6800;50.940;6.940;2023-02-13T15:12:31;102664.22;;;24.40;26.71
13456;BME280;6800;50.940;6.940;2023-02-13T15:16:33;102660.44;;;23.99;27.28
13456;BME280;6800;50.940;6.940;2023-02-13T15:20:37;102655.47;;;24.38;26.47
13456;BME280;6800;50.940;6.940;2023-02-13T15:24:46;102654.28;;;24.31;26.75
13456;BME280;6800;50.940;6.940;2023-02-13T15:29:18;102653.88;;;24.03;26.96
13456;BME280;6800;50.940;6.940;2023-02-13T15:33:46;102646.91;;;23.69;27.36
13456;BME280;6800;50.940;6.940;2023-02-13T15:37:48;102651.28;;;23.59;27.37
13456;BME280;6800;50.940;6.940;2023-02-13T15:41:52;102653.28;;;24.00;26.95
13456;BME280;6800;50.940;6.940;2023-02-13T15:45:58;102650.94;;;24.49;26.51
13456;BME280;6800;50.940;6.940;2023-02-13T15:50:01;102647.41;;;24.28;26.46
13456;BME280;6800;50.940;6.940;2023-02-13T15:54:20;102647.94;;;24.11;26.71
13456;BME280;6800;50.940;6.940;2023-02-13T15:58:25;102645.78;;;23.94;26.75
13456;BME280;6800;50.940;6.940;2023-02-13T16:02:43;102647.59;;;24.05;26.95
13456;BME280;6800;50.940;6.940;2023-02-13T16:06:46;102643.22;;;23.92;26.86
13456;BME280;6800;50.940;6.940;2023-02-13T16:10:49;102646.31;;;23.66;27.14
13456;BME280;6800;50.940;6.940;2023-02-13T16:14:57;102652.22;;;23.69;29.05
13456;BME280;6800;50.940;6.940;2023-02-13T16:19:00;102653.72;;;23.51;28.88
13456;BME280;6800;50.940;6.940;2023-02-13T16:23:05;102655.28;;;23.43;29.05
13456;BME280;6800;50.940;6.940;2023-02-13T16:27:12;102653.00;;;23.60;29.39
13456;BME280;6800;50.940;6.940;2023-02-13T16:31:15;102656.34;;;23.84;29.35
13456;BME280;6800;50.940;6.940;2023-02-13T16:35:28;102655.38;;;23.74;29.42
13456;BME280;6800;50.940;6.940;2023-02-13T16:39:31;102653.09;;;23.48;29.42
13456;BME280;6800;50.940;6.940;2023-02-13T16:43:45;102671.72;;;23.14;30.08
13456;BME280;6800;50.940;6.940;2023-02-13T16:47:46;102671.44;;;22.95;30.30
13456;BME280;6800;50.940;6.940;2023-02-13T16:51:55;102669.03;;;23.03;30.30
13456;BME280;6800;50.940;6.940;2023-02-13T16:56:02;102670.88;;;22.68;30.60
13456;BME280;6800;50.940;6.940;2023-02-13T17:00:06;102673.00;;;22.52;30.90
13456;BME280;6800;50.940;6.940;2023-02-13T17:04:23;102688.09;;;22.51;31.09
13456;BME280;6800;50.940;6.940;2023-02-13T17:08:25;102694.63;;;22.71;30.68
13456;BME280;6800;50.940;6.940;2023-02-13T17:12:29;102694.78;;;22.33;31.33
13456;BME280;6800;50.940;6.940;2023-02-13T17:16:31;102689.56;;;22.08;31.71
13456;BME280;6800;50.940;6.940;2023-02-13T17:20:33;102698.41;;;22.09;31.78
13456;BME280;6800;50.940;6.940;2023-02-13T17:24:35;102691.22;;;22.22;31.45
13456;BME280;6800;50.940;6.940;2023-02-13T17:28:36;102699.03;;;22.36;31.35
13456;BME280;6800;50.940;6.940;2023-02-13T17:32:38;102699.34;;;21.84;32.04
13456;BME280;6800;50.940;6.940;2023-02-13T17:36:39;102696.81;;;22.06;31.60
13456;BME280;6800;50.940;6.940;2023-02-13T17:40:42;102698.59;;;22.06;31.78
13456;BME280;6800;50.940;6.940;2023-02-13T17:44:44;102702.13;;;22.06;31.79
13456;BME280;6800;50.940;6.940;2023-02-13T17:48:45;102695.91;;;21.95;32.04
13456;BME280;6800;50.940;6.940;2023-02-13T17:52:47;102703.09;;;21.80;32.22
13456;BME280;6800;50.940;6.940;2023-02-13T17:56:49;102709.88;;;21.60;32.71
13456;BME280;6800;50.940;6.940;2023-02-13T18:00:50;102704.00;;;21.68;32.63
13456;BME280;6800;50.940;6.940;2023-02-13T18:04:52;102706.22;;;21.61;32.68
13456;BME280;6800;50.940;6.940;2023-02-13T18:08:54;102711.03;;;21.56;32.60
13456;BME280;6800;50.940;6.940;2023-02-13T18:12:56;102705.75;;;21.44;32.93
13456;BME280;6800;50.940;6.940;2023-02-13T18:17:04;102702.75;;;21.23;32.59
13456;BME280;6800;50.940;6.940;2023-02-13T18:21:05;102703.09;;;21.31;32.97
13456;BME280;6800;50.940;6.940;2023-02-13T18:25:07;102696.91;;;21.31;32.51
13456;BME280;6800;50.940;6.940;2023-02-13T18:29:08;102703.81;;;21.33;32.55
13456;BME280;6800;50.940;6.940;2023-02-13T18:33:10;102712.38;;;20.99;32.98
13456;BME280;6800;50.940;6.940;2023-02-13T18:37:12;102707.00;;;21.13;32.81
13456;BME280;6800;50.940;6.940;2023-02-13T18:41:13;102716.81;;;20.98;32.79
13456;BME280;6800;50.940;6.940;2023-02-13T18:45:15;102698.16;;;21.13;32.78
13456;BME280;6800;50.940;6.940;2023-02-13T18:49:16;102714.66;;;20.91;33.08
13456;BME280;6800;50.940;6.940;2023-02-13T18:53:18;102710.34;;;20.90;33.00
13456;BME280;6800;50.940;6.940;2023-02-13T18:57:19;102718.75;;;20.70;33.43
13456;BME280;6800;50.940;6.940;2023-02-13T19:01:21;102716.63;;;21.02;33.13
13456;BME280;6800;50.940;6.940;2023-02-13T19:05:23;102723.16;;;20.83;33.25
13456;BME280;6800;50.940;6.940;2023-02-13T19:09:24;102720.81;;;20.79;33.64
13456;BME280;6800;50.940;6.940;2023-02-13T19:13:26;102714.94;;;20.35;34.17
13456;BME280;6800;50.940;6.940;2023-02-13T19:17:27;102719.59;;;20.58;34.11
13456;BME280;6800;50.940;6.940;2023-02-13T19:21:30;102719.34;;;20.07;35.17
13456;BME280;6800;50.940;6.940;2023-02-13T19:25:35;102719.53;;;20.72;33.99
13456;BME280;6800;50.940;6.940;2023-02-13T19:29:36;102738.41;;;20.41;34.25
13456;BME280;6800;50.940;6.940;2023-02-13T19:33:38;102738.91;;;20.33;34.68
13456;BME280;6800;50.940;6.940;2023-02-13T19:37:39;102733.16;;;20.27;34.62
13456;BME280;6800;50.940;6.940;2023-02-13T19:41:44;102734.84;;;20.28;34.71
13456;BME280;6800;50.940;6.940;2023-02-13T19:45:46;102734.72;;;19.74;36.08
13456;BME280;6800;50.940;6.940;2023-02-13T19:49:47;102732.59;;;20.07;35.56
13456;BME280;6800;50.940;6.940;2023-02-13T19:53:57;102731.41;;;20.40;34.71
13456;BME280;6800;50.940;6.940;2023-02-13T19:57:59;102733.63;;;20.33;34.86
13456;BME280;6800;50.940;6.940;2023-02-13T20:02:00;102726.50;;;20.19;35.07
13456;BME280;6800;50.940;6.940;2023-02-13T20:06:07;102726.66;;;19.90;35.35
13456;BME280;6800;50.940;6.940;2023-02-13T20:10:09;102730.06;;;20.06;35.29
13456;BME280;6800;50.940;6.940;2023-02-13T20:14:11;102723.25;;;20.02;34.84
13456;BME280;6800;50.940;6.940;2023-02-13T20:18:15;102729.13;;;19.65;35.92
13456;BME280;6800;50.940;6.940;2023-02-13T20:22:17;102737.38;;;19.60;35.52
13456;BME280;6800;50.940;6.940;2023-02-13T20:26:19;102741.44;;;19.22;36.44
13456;BME280;6800;50.940;6.940;2023-02-13T20:30:20;102737.09;;;19.65;35.31
13456;BME280;6800;50.940;6.940;2023-02-13T20:34:22;102738.00;;;19.35;35.71
13456;BME280;6800;50.940;6.940;2023-02-13T20:38:23;102741.81;;;19.45;35.33
13456;BME280;6800;50.940;6.940;2023-02-13T20:42:26;102739.72;;;19.65;35.10
13456;BME280;6800;50.940;6.940;2023-02-13T20:46:31;102747.75;;;19.49;35.17
13456;BME280;6800;50.940;6.940;2023-02-13T20:50:33;102737.78;;;19.24;35.54
13456;BME280;6800;50.940;6.940;2023-02-13T20:54:35;102747.13;;;19.16;35.78
13456;BME280;6800;50.940;6.940;2023-02-13T20:58:38;102743.59;;;19.45;35.01
13456;BME280;6800;50.940;6.940;2023-02-13T21:02:39;102748.06;;;19.15;35.36
13456;BME280;6800;50.940;6.940;2023-02-13T21:06:40;102750.53;;;19.32;35.32
13456;BME280;6800;50.940;6.940;2023-02-13T21:10:42;102743.31;;;19.06;35.95
13456;BME280;6800;50.940;6.940;2023-02-13T21:14:43;102741.59;;;19.34;35.17
13456;BME280;6800;50.940;6.940;2023-02-13T21:18:49;102745.44;;;19.29;34.96
13456;BME280;6800;50.940;6.940;2023-02-13T21:22:51;102748.84;;;19.17;35.66
13456;BME280;6800;50.940;6.940;2023-02-13T21:26:53;102743.72;;;19.14;35.82
13456;BME280;6800;50.940;6.940;2023-02-13T21:30:55;102741.31;;;19.09;35.59
13456;BME280;6800;50.940;6.940;2023-02-13T21:34:56;102736.72;;;19.13;35.74
13456;BME280;6800;50.940;6.940;2023-02-13T21:38:59;102733.16;;;18.98;36.14
13456;BME280;6800;50.940;6.940;2023-02-13T21:43:00;102737.41;;;18.87;36.08
13456;BME280;6800;50.940;6.940;2023-02-13T21:47:01;102737.28;;;18.88;35.86
13456;BME280;6800;50.940;6.940;2023-02-13T21:51:11;102734.00;;;18.85;35.87
13456;BME280;6800;50.940;6.940;2023-02-13T21:55:12;102732.47;;;18.81;36.19
13456;BME280;6800;50.940;6.940;2023-02-13T21:59:15;102727.66;;;18.87;36.01
13456;BME280;6800;50.940;6.940;2023-02-13T22:03:17;102728.09;;;18.80;35.94
13456;BME280;6800;50.940;6.940;2023-02-13T22:07:18;102726.59;;;18.90;36.59
13456;BME280;6800;50.940;6.940;2023-02-13T22:11:20;102727.81;;;19.00;36.73
13456;BME280;6800;50.940;6.940;2023-02-13T22:15:21;102714.31;;;18.59;36.34
13456;BME280;6800;50.940;6.940;2023-02-13T22:19:22;102710.78;;;18.74;35.59
13456;BME280;6800;50.940;6.940;2023-02-13T22:23:24;102714.84;;;18.65;36.30
13456;BME280;6800;50.940;6.940;2023-02-13T22:27:25;102717.59;;;18.48;36.36
13456;BME280;6800;50.940;6.940;2023-02-13T22:31:27;102720.28;;;18.62;36.27
13456;BME280;6800;50.940;6.940;2023-02-13T22:35:28;102715.31;;;18.41;36.61
13456;BME280;6800;50.940;6.940;2023-02-13T22:39:30;102714.94;;;18.48;36.53
13456;BME280;6800;50.940;6.940;2023-02-13T22:43:31;102717.59;;;18.48;36.20
13456;BME280;6800;50.940;6.940;2023-02-13T22:47:33;102722.00;;;18.32;36.77
13456;BME280;6800;50.940;6.940;2023-02-13T22:51:35;102723.72;;;18.33;36.97
13456;BME280;6800;50.940;6.940;2023-02-13T22:55:36;102729.69;;;18.21;37.15
13456;BME280;6800;50.940;6.940;2023-02-13T22:59:38;102719.88;;;18.23;36.95
13456;BME280;6800;50.940;6.940;2023-02-13T23:03:41;102723.38;;;18.08;37.17
13456;BME280;6800;50.940;6.940;2023-02-13T23:07:42;102736.50;;;18.10;37.50
13456;BME280;6800;50.940;6.940;2023-02-13T23:11:44;102722.09;;;18.15;36.84
13456;BME280;6800;50.940;6.940;2023-02-13T23:16:10;102717.59;;;18.17;37.13
13456;BME280;6800;50.940;6.940;2023-02-13T23:20:12;102722.09;;;18.00;37.12
13456;BME280;6800;50.940;6.940;2023-02-13T23:24:13;102728.38;;;17.97;37.50
13456;BME280;6800;50.940;6.940;2023-02-13T23:28:15;102726.75;;;17.94;37.48